createdAt,value
2019-05-25T00:01:57.717Z,97204.81
2019-05-25T00:04:24.464Z,97204.56
2019-05-25T00:06:51.544Z,97199.50
2019-05-25T00:09:18.204Z,97200.92
2019-05-25T00:11:45.225Z,97204.02
2019-05-25T00:14:11.771Z,97205.70
2019-05-25T00:16:38.705Z,97202.77
2019-05-25T00:19:05.848Z,97203.36
2019-05-25T00:21:32.373Z,97202.30
2019-05-25T00:24:11.117Z,97196.89
2019-05-25T00:26:27.612Z,97194.72
2019-05-25T00:28:54.508Z,97193.11
2019-05-25T00:31:21.251Z,97197.77
2019-05-25T00:33:47.855Z,97195.03
2019-05-25T00:36:14.491Z,97191.49
2019-05-25T00:38:41.150Z,97197.52
2019-05-25T00:41:08.127Z,97199.19
2019-05-25T00:43:34.660Z,97195.39
2019-05-25T00:46:01.325Z,97193.47
2019-05-25T00:48:27.993Z,97196.54
2019-05-25T00:50:54.798Z,97199.83
2019-05-25T00:53:21.421Z,97202.56
2019-05-25T00:55:48.195Z,97199.83
2019-05-25T00:58:14.891Z,97194.67
2019-05-25T01:00:41.564Z,97201.50
2019-05-25T01:03:08.388Z,97198.52
2019-05-25T01:05:35.338Z,97202.86
2019-05-25T01:08:02.023Z,97201.25
2019-05-25T01:10:28.768Z,97206.95
2019-05-25T01:12:55.329Z,97210.80
2019-05-25T01:15:22.791Z,97210.55
2019-05-25T01:17:49.345Z,97208.12
2019-05-25T01:20:16.572Z,97204.03
2019-05-25T01:22:43.343Z,97205.40
2019-05-25T01:25:10.359Z,97211.16
2019-05-25T01:27:37.678Z,97210.11
2019-05-25T01:30:05.236Z,97214.76
2019-05-25T01:32:31.794Z,97210.41
2019-05-25T01:34:58.564Z,97206.57
2019-05-25T01:37:25.095Z,97204.70
2019-05-25T01:39:51.769Z,97208.23
2019-05-25T01:42:18.410Z,97210.72
2019-05-25T01:44:45.046Z,97213.20
2019-05-25T01:47:11.708Z,97206.13
2019-05-25T01:49:38.381Z,97205.06
2019-05-25T01:52:05.275Z,97203.45
2019-05-25T01:54:31.928Z,97197.23
2019-05-25T01:56:58.851Z,97203.00
2019-05-25T01:59:25.934Z,97204.11
2019-05-25T02:01:52.565Z,97202.25
2019-05-25T02:04:19.323Z,97199.35
2019-05-25T02:06:45.859Z,97200.77
2019-05-25T02:09:12.614Z,97200.27
2019-05-25T02:11:39.355Z,97207.14
2019-05-25T02:14:06.093Z,97200.93
2019-05-25T02:16:32.754Z,97202.66
2019-05-25T02:18:59.294Z,97202.20
2019-05-25T02:21:25.911Z,97203.61
2019-05-25T02:23:52.587Z,97206.73
2019-05-25T02:26:19.377Z,97209.00
2019-05-25T02:28:46.014Z,97198.70
2019-05-25T02:31:12.756Z,97203.95
2019-05-25T02:33:39.415Z,97205.67
2019-05-25T02:36:06.070Z,97208.74
2019-05-25T02:38:32.736Z,97207.17
2019-05-25T02:40:59.684Z,97208.11
2019-05-25T02:43:26.450Z,97205.73
2019-05-25T02:45:53.084Z,97206.64
2019-05-25T02:48:19.841Z,97208.34
2019-05-25T02:50:46.673Z,97207.89
2019-05-25T02:53:13.606Z,97201.67
2019-05-25T02:55:40.614Z,97205.59
2019-05-25T02:58:07.183Z,97207.00
2019-05-25T03:00:34.352Z,97208.45
2019-05-25T03:03:01.683Z,97206.04
2019-05-25T03:05:31.280Z,97209.11
2019-05-25T03:07:58.842Z,97207.53
2019-05-25T03:10:25.837Z,97208.43
2019-05-25T03:12:52.493Z,97208.25
2019-05-25T03:15:19.248Z,97209.39
2019-05-25T03:17:45.892Z,97215.44
2019-05-25T03:20:12.758Z,97215.23
2019-05-25T03:22:39.632Z,97217.48
2019-05-25T03:25:06.746Z,97222.67
2019-05-25T03:27:33.373Z,97220.80
2019-05-25T03:29:59.979Z,97217.30
2019-05-25T03:32:26.621Z,97230.16
2019-05-25T03:34:53.847Z,97224.48
2019-05-25T03:37:20.747Z,97222.05
2019-05-25T03:39:47.846Z,97222.34
2019-05-25T03:42:14.510Z,97225.11
2019-05-25T03:44:41.044Z,97225.66
2019-05-25T03:47:07.785Z,97221.32
2019-05-25T03:49:34.438Z,97219.16
2019-05-25T03:52:01.285Z,97214.27
2019-05-25T03:54:27.956Z,97219.19
2019-05-25T03:56:54.999Z,97224.38
2019-05-25T03:59:21.744Z,97223.87
2019-05-25T04:01:48.403Z,97225.23
2019-05-25T04:04:15.179Z,97226.03
2019-05-25T04:06:41.838Z,97225.78
2019-05-25T04:09:08.745Z,97226.33
2019-05-25T04:11:35.499Z,97230.67
2019-05-25T04:14:02.248Z,97229.56
2019-05-25T04:16:28.807Z,97221.41
2019-05-25T04:18:55.822Z,97227.91
2019-05-25T04:21:22.752Z,97232.25
2019-05-25T04:23:49.661Z,97235.48
2019-05-25T04:26:22.431Z,97227.58
2019-05-25T04:28:46.164Z,97236.26
2019-05-25T04:31:13.101Z,97233.23
2019-05-25T04:33:39.785Z,97239.20
2019-05-25T04:36:06.630Z,97238.32
2019-05-25T04:38:33.283Z,97237.77
2019-05-25T04:40:59.962Z,97244.28
2019-05-25T04:43:26.647Z,97250.50
2019-05-25T04:45:53.404Z,97240.97
2019-05-25T04:48:20.104Z,97242.58
2019-05-25T04:50:46.774Z,97251.81
2019-05-25T04:53:13.587Z,97256.16
2019-05-25T04:55:40.248Z,97258.84
2019-05-25T04:58:07.088Z,97256.08
2019-05-25T05:00:33.741Z,97260.42
2019-05-25T05:03:00.443Z,97260.08
2019-05-25T05:05:27.092Z,97263.32
2019-05-25T05:07:53.855Z,97259.45
2019-05-25T05:10:20.882Z,97265.59
2019-05-25T05:12:47.564Z,97262.23
2019-05-25T05:15:14.296Z,97259.16
2019-05-25T05:17:41.091Z,97256.05
2019-05-25T05:20:08.339Z,97252.60
2019-05-25T05:22:35.518Z,97251.66
2019-05-25T05:25:02.545Z,97254.25
2019-05-25T05:27:29.495Z,97246.45
2019-05-25T05:29:56.293Z,97249.04
2019-05-25T05:32:27.572Z,97246.98
2019-05-25T05:34:52.708Z,97251.47
2019-05-25T05:37:19.612Z,97248.62
2019-05-25T05:39:46.930Z,97251.25
2019-05-25T05:42:13.912Z,97249.78
2019-05-25T05:44:40.818Z,97259.78
2019-05-25T05:47:10.374Z,97258.37
2019-05-25T05:49:36.808Z,97264.58
2019-05-25T05:52:03.645Z,97266.12
2019-05-25T05:54:30.952Z,97272.08
2019-05-25T05:57:11.185Z,97272.33
2019-05-25T05:59:27.560Z,97268.19
2019-05-25T06:01:54.340Z,97271.42
2019-05-25T06:04:21.231Z,97267.83
2019-05-25T06:06:47.924Z,97271.81
2019-05-25T06:09:14.627Z,97270.95
2019-05-25T06:11:41.329Z,97270.30
2019-05-25T06:14:08.209Z,97275.81
2019-05-25T06:16:34.914Z,97274.56
2019-05-25T06:19:01.721Z,97279.50
2019-05-25T06:21:28.494Z,97277.07
2019-05-25T06:23:55.697Z,97275.47
2019-05-25T06:26:22.560Z,97276.16
2019-05-25T06:28:49.241Z,97277.88
2019-05-25T06:31:16.125Z,97277.20
2019-05-25T06:33:42.728Z,97280.87
2019-05-25T06:36:09.368Z,97284.76
2019-05-25T06:38:35.940Z,97284.88
2019-05-25T06:41:04.322Z,97282.59
2019-05-25T06:43:32.144Z,97286.56
2019-05-25T06:45:58.991Z,97280.16
2019-05-25T06:48:25.681Z,97282.42
2019-05-25T06:50:52.586Z,97284.72
2019-05-25T06:53:19.247Z,97282.84
2019-05-25T06:55:46.049Z,97283.73
2019-05-25T06:58:15.912Z,97285.86
2019-05-25T07:00:43.228Z,97287.94
2019-05-25T07:03:10.015Z,97289.28
2019-05-25T07:05:36.807Z,97290.99
2019-05-25T07:08:04.049Z,97288.94
2019-05-25T07:10:30.853Z,97292.08
2019-05-25T07:12:57.679Z,97285.66
2019-05-25T07:15:24.433Z,97299.46
2019-05-25T07:17:51.126Z,97303.23
2019-05-25T07:20:17.889Z,97296.43
2019-05-25T07:22:44.507Z,97296.66
2019-05-25T07:25:13.077Z,97299.43
2019-05-25T07:27:39.613Z,97298.59
2019-05-25T07:30:07.154Z,97295.16
2019-05-25T07:32:34.441Z,97301.25
2019-05-25T07:35:01.104Z,97300.63
2019-05-25T07:37:27.765Z,97302.83
2019-05-25T07:39:54.442Z,97297.69
2019-05-25T07:42:21.097Z,97294.45
2019-05-25T07:44:47.951Z,97296.80
2019-05-25T07:47:14.702Z,97291.37
2019-05-25T07:49:41.505Z,97285.09
2019-05-25T07:52:08.037Z,97292.22
2019-05-25T07:54:34.787Z,97288.92
2019-05-25T07:57:01.464Z,97288.73
2019-05-25T07:59:28.283Z,97296.91
2019-05-25T08:01:55.164Z,97290.72
2019-05-25T08:04:21.840Z,97292.81
2019-05-25T08:06:48.577Z,97297.16
2019-05-25T08:09:15.436Z,97297.52
2019-05-25T08:11:42.387Z,97300.16
2019-05-25T08:14:09.111Z,97295.36
2019-05-25T08:16:35.836Z,97296.52
2019-05-25T08:19:02.693Z,97299.02
2019-05-25T08:21:29.443Z,97299.14
2019-05-25T08:23:56.184Z,97292.83
2019-05-25T08:26:22.999Z,97298.91
2019-05-25T08:28:49.910Z,97299.02
2019-05-25T08:31:17.266Z,97300.41
2019-05-25T08:33:44.001Z,97302.59
2019-05-25T08:36:10.725Z,97308.69
2019-05-25T08:38:37.580Z,97305.09
2019-05-25T08:41:04.261Z,97306.17
2019-05-25T08:43:31.027Z,97283.29
2019-05-25T08:45:57.798Z,97299.18
2019-05-25T08:48:24.640Z,97308.77
2019-05-25T08:50:51.341Z,97307.31
2019-05-25T08:53:22.825Z,97302.13
2019-05-25T08:55:46.827Z,97303.81
2019-05-25T08:58:13.607Z,97299.19
2019-05-25T09:00:40.528Z,97303.56
2019-05-25T09:03:07.252Z,97305.27
2019-05-25T09:05:34.035Z,97300.56
2019-05-25T09:08:00.999Z,97304.36
2019-05-25T09:10:27.646Z,97301.64
2019-05-25T09:12:54.475Z,97304.65
2019-05-25T09:15:21.139Z,97302.61
2019-05-25T09:17:47.747Z,97302.67
2019-05-25T09:20:14.468Z,97300.81
2019-05-25T09:22:41.254Z,97304.36
2019-05-25T09:25:08.453Z,97303.83
2019-05-25T09:27:35.296Z,97306.19
2019-05-25T09:30:02.116Z,97309.36
2019-05-25T09:32:28.909Z,97306.33
2019-05-25T09:34:55.463Z,97302.72
2019-05-25T09:37:22.269Z,97299.19
2019-05-25T09:39:48.964Z,97292.10
2019-05-25T09:42:15.977Z,97295.89
2019-05-25T09:44:42.627Z,97292.55
2019-05-25T09:47:09.274Z,97294.51
2019-05-25T09:49:35.984Z,97297.99
2019-05-25T09:52:02.797Z,97293.98
2019-05-25T09:54:29.720Z,97290.82
2019-05-25T09:56:56.408Z,97289.57
2019-05-25T09:59:23.288Z,97285.01
2019-05-25T10:01:50.134Z,97286.39
2019-05-25T10:04:17.013Z,97285.64
2019-05-25T10:06:43.986Z,97283.63
2019-05-25T10:09:10.645Z,97283.80
2019-05-25T10:11:37.326Z,97281.20
2019-05-25T10:14:04.983Z,97278.94
2019-05-25T10:16:31.805Z,97279.95
2019-05-25T10:18:58.804Z,97277.41
2019-05-25T10:21:25.600Z,97273.34
2019-05-25T10:23:52.306Z,97271.54
2019-05-25T10:26:22.896Z,97274.42
2019-05-25T10:28:47.872Z,97266.86
2019-05-25T10:31:14.601Z,97255.97
2019-05-25T10:33:41.327Z,97263.43
2019-05-25T10:36:08.147Z,97261.05
2019-05-25T10:38:34.841Z,97255.94
2019-05-25T10:41:01.822Z,97263.89
2019-05-25T10:43:29.273Z,97258.72
2019-05-25T10:45:56.603Z,97258.63
2019-05-25T10:48:23.292Z,97260.73
2019-05-25T10:50:50.417Z,97249.23
2019-05-25T10:53:17.213Z,97247.41
2019-05-25T10:55:44.170Z,97244.41
2019-05-25T10:58:11.157Z,97245.94
2019-05-25T11:00:39.067Z,97250.17
2019-05-25T11:03:05.763Z,97245.52
2019-05-25T11:05:32.833Z,97242.03
2019-05-25T11:07:59.558Z,97244.44
2019-05-25T11:10:26.472Z,97237.30
2019-05-25T11:12:53.290Z,97237.45
2019-05-25T11:15:20.101Z,97233.52
2019-05-25T11:17:46.929Z,97235.34
2019-05-25T11:20:14.509Z,97231.69
2019-05-25T11:22:41.154Z,97232.99
2019-05-25T11:25:10.338Z,97231.61
2019-05-25T11:27:37.240Z,97234.37
2019-05-25T11:30:09.459Z,97233.58
2019-05-25T11:32:33.877Z,97234.30
2019-05-25T11:35:00.592Z,97233.13
2019-05-25T11:37:27.257Z,97236.48
2019-05-25T11:39:54.023Z,97235.09
2019-05-25T11:42:20.746Z,97232.69
2019-05-25T11:44:47.588Z,97230.64
2019-05-25T11:47:14.330Z,97233.55
2019-05-25T11:49:41.071Z,97230.06
2019-05-25T11:52:07.900Z,97231.72
2019-05-25T11:54:34.570Z,97234.27
2019-05-25T11:57:01.302Z,97237.16
2019-05-25T11:59:27.985Z,97235.56
2019-05-25T12:01:54.718Z,97231.22
2019-05-25T12:04:21.605Z,97228.32
2019-05-25T12:06:48.273Z,97225.00
2019-05-25T12:09:15.484Z,97219.81
2019-05-25T12:11:42.148Z,97208.77
2019-05-25T12:14:08.901Z,97214.38
2019-05-25T12:16:35.579Z,97210.22
2019-05-25T12:19:02.336Z,97205.27
2019-05-25T12:21:29.201Z,97204.47
2019-05-25T12:23:55.996Z,97192.16
2019-05-25T12:26:22.819Z,97190.20
2019-05-25T12:28:49.471Z,97190.34
2019-05-25T12:31:16.197Z,97185.97
2019-05-25T12:33:42.927Z,97184.73
2019-05-25T12:36:10.095Z,97180.72
2019-05-25T12:38:36.803Z,97180.50
2019-05-25T12:41:05.770Z,97176.20
2019-05-25T12:43:32.494Z,97176.80
2019-05-25T12:45:59.310Z,97172.86
2019-05-25T12:48:25.959Z,97176.43
2019-05-25T12:50:52.998Z,97171.92
2019-05-25T12:53:19.758Z,97175.70
2019-05-25T12:55:46.680Z,97172.14
2019-05-25T12:58:13.536Z,97175.56
2019-05-25T13:00:53.459Z,97170.17
2019-05-25T13:03:10.885Z,97176.50
2019-05-25T13:05:37.403Z,97178.69
2019-05-25T13:08:05.431Z,97178.77
2019-05-25T13:10:32.165Z,97188.48
2019-05-25T13:13:01.912Z,97196.11
2019-05-25T13:15:27.464Z,97200.05
2019-05-25T13:17:54.744Z,97213.52
2019-05-25T13:20:22.609Z,97211.01
2019-05-25T13:22:49.538Z,97208.56
2019-05-25T13:25:16.881Z,97206.96
2019-05-25T13:27:43.751Z,97206.89
2019-05-25T13:30:10.591Z,97198.66
2019-05-25T13:32:37.773Z,97206.38
2019-05-25T13:35:05.055Z,97201.06
2019-05-25T13:37:31.957Z,97209.00
2019-05-25T13:39:58.627Z,97208.12
2019-05-25T13:42:25.369Z,97214.03
2019-05-25T13:44:52.396Z,97210.16
2019-05-25T13:47:19.152Z,97196.86
2019-05-25T13:49:45.837Z,97204.36
2019-05-25T13:52:12.557Z,97199.55
2019-05-25T13:54:39.741Z,97196.71
2019-05-25T13:57:06.540Z,97200.72
2019-05-25T13:59:33.289Z,97202.69
2019-05-25T14:02:00.212Z,97195.09
2019-05-25T14:04:26.896Z,97195.84
2019-05-25T14:06:53.679Z,97204.37
2019-05-25T14:09:20.397Z,97204.91
2019-05-25T14:11:47.114Z,97200.02
2019-05-25T14:14:14.183Z,97206.08
2019-05-25T14:16:41.069Z,97199.57
2019-05-25T14:19:07.974Z,97198.75
2019-05-25T14:21:34.720Z,97195.26
2019-05-25T14:24:01.974Z,97195.34
2019-05-25T14:26:28.765Z,97192.21
2019-05-25T14:28:55.582Z,97196.47
2019-05-25T14:31:22.466Z,97191.81
2019-05-25T14:33:49.221Z,97189.28
2019-05-25T14:36:15.893Z,97190.69
2019-05-25T14:38:42.648Z,97178.89
2019-05-25T14:41:14.055Z,97182.33
2019-05-25T14:43:40.878Z,97184.88
2019-05-25T14:46:07.724Z,97177.41
2019-05-25T14:48:34.593Z,97176.25
2019-05-25T14:51:01.635Z,97172.86
2019-05-25T14:53:28.463Z,97172.86
2019-05-25T14:55:55.111Z,97175.16
2019-05-25T14:58:21.868Z,97174.05
2019-05-25T15:00:50.976Z,97177.17
2019-05-25T15:03:18.010Z,97182.66
2019-05-25T15:05:44.809Z,97178.48
2019-05-25T15:08:11.628Z,97180.20
2019-05-25T15:10:38.557Z,97175.23
2019-05-25T15:13:05.500Z,97181.04
2019-05-25T15:15:32.288Z,97174.30
2019-05-25T15:17:59.098Z,97169.08
2019-05-25T15:20:26.077Z,97172.21
2019-05-25T15:22:52.755Z,97163.33
2019-05-25T15:25:19.395Z,97160.78
2019-05-25T15:27:46.302Z,97163.94
2019-05-25T15:30:13.484Z,97170.93
2019-05-25T15:32:40.469Z,97172.20
2019-05-25T15:35:07.232Z,97173.16
2019-05-25T15:37:33.932Z,97175.20
2019-05-25T15:40:00.707Z,97174.11
2019-05-25T15:42:28.697Z,97172.51
2019-05-25T15:44:56.464Z,97166.53
2019-05-25T15:47:23.611Z,97161.13
2019-05-25T15:49:50.528Z,97158.33
2019-05-25T15:52:17.377Z,97157.08
2019-05-25T15:54:44.290Z,97165.30
2019-05-25T15:57:11.220Z,97158.91
2019-05-25T15:59:38.056Z,97157.44
2019-05-25T16:02:05.246Z,97160.20
2019-05-25T16:04:32.133Z,97160.20
2019-05-25T16:06:58.814Z,97160.57
2019-05-25T16:09:25.504Z,97164.30
2019-05-25T16:11:52.454Z,97157.86
2019-05-25T16:14:19.604Z,97167.13
2019-05-25T16:16:46.349Z,97170.50
2019-05-25T16:19:13.480Z,97167.70
2019-05-25T16:21:40.284Z,97167.05
2019-05-25T16:24:08.185Z,97172.03
2019-05-25T16:26:45.360Z,97178.04
2019-05-25T16:29:03.629Z,97179.93
2019-05-25T16:31:30.601Z,97176.36
2019-05-25T16:33:57.550Z,97180.52
2019-05-25T16:36:24.207Z,97181.89
2019-05-25T16:38:51.060Z,97187.86
2019-05-25T16:41:17.801Z,97190.86
2019-05-25T16:43:44.849Z,97199.50
2019-05-25T16:46:11.765Z,97201.47
2019-05-25T16:48:38.434Z,97205.23
2019-05-25T16:51:05.380Z,97205.28
2019-05-25T16:53:32.157Z,97205.92
2019-05-25T16:55:58.967Z,97203.59
2019-05-25T16:58:25.723Z,97203.39
2019-05-25T17:00:52.272Z,97210.56
2019-05-25T17:03:28.254Z,97205.75
2019-05-25T17:05:47.683Z,97212.22
2019-05-25T17:08:14.460Z,97214.61
2019-05-25T17:10:41.373Z,97211.75
2019-05-25T17:13:08.016Z,97220.44
2019-05-25T17:15:34.786Z,97220.16
2019-05-25T17:18:04.602Z,97222.63
2019-05-25T17:20:30.120Z,97215.34
2019-05-25T17:22:56.757Z,97223.89
2019-05-25T17:25:23.438Z,97225.33
2019-05-25T17:27:50.057Z,97226.73
2019-05-25T17:30:25.392Z,97233.41
2019-05-25T17:32:52.130Z,97236.19
2019-05-25T17:35:18.900Z,97235.21
2019-05-25T17:37:45.726Z,97244.44
2019-05-25T17:40:12.505Z,97242.72
2019-05-25T17:42:39.306Z,97242.97
2019-05-25T17:45:06.376Z,97243.36
2019-05-25T17:47:33.160Z,97244.88
2019-05-25T17:50:00.153Z,97253.28
2019-05-25T17:52:26.831Z,97253.89
2019-05-25T17:54:53.629Z,97259.41
2019-05-25T17:57:20.400Z,97258.04
2019-05-25T17:59:47.076Z,97256.78
2019-05-25T18:02:13.952Z,97251.46
2019-05-25T18:04:40.509Z,97254.56
2019-05-25T18:07:07.242Z,97257.35
2019-05-25T18:09:33.995Z,97255.41
2019-05-25T18:12:00.657Z,97251.27
2019-05-25T18:14:27.357Z,97261.59
2019-05-25T18:16:54.015Z,97272.84
2019-05-25T18:19:20.758Z,97270.92
2019-05-25T18:21:47.428Z,97262.30
2019-05-25T18:24:14.387Z,97265.52
2019-05-25T18:26:41.373Z,97262.98
2019-05-25T18:29:08.278Z,97261.59
2019-05-25T18:31:35.073Z,97257.57
2019-05-25T18:34:01.810Z,97259.43
2019-05-25T18:36:28.616Z,97259.08
2019-05-25T18:38:55.186Z,97264.46
2019-05-25T18:41:22.121Z,97269.38
2019-05-25T18:43:49.010Z,97269.93
2019-05-25T18:46:15.708Z,97266.25
2019-05-25T18:48:42.645Z,97273.58
2019-05-25T18:51:09.442Z,97274.13
2019-05-25T18:53:36.144Z,97273.30
2019-05-25T18:56:02.934Z,97276.02
2019-05-25T18:58:29.719Z,97271.56
2019-05-25T19:00:56.528Z,97275.09
2019-05-25T19:03:23.255Z,97282.98
2019-05-25T19:05:50.434Z,97286.74
2019-05-25T19:08:17.259Z,97286.38
2019-05-25T19:10:45.928Z,97282.25
2019-05-25T19:13:12.961Z,97282.45
2019-05-25T19:15:39.772Z,97283.22
2019-05-25T19:18:06.768Z,97295.22
2019-05-25T19:20:33.500Z,97289.69
2019-05-25T19:23:00.202Z,97292.98
2019-05-25T19:25:27.158Z,97294.80
2019-05-25T19:27:53.954Z,97300.69
2019-05-25T19:30:20.934Z,97300.98
2019-05-25T19:32:47.871Z,97295.67
2019-05-25T19:35:14.725Z,97305.75
2019-05-25T19:37:42.654Z,97312.47
2019-05-25T19:40:09.779Z,97311.52
2019-05-25T19:42:36.612Z,97313.41
2019-05-25T19:45:03.695Z,97318.77
2019-05-25T19:47:30.549Z,97317.13
2019-05-25T19:49:57.376Z,97315.12
2019-05-25T19:52:24.476Z,97319.10
2019-05-25T19:54:51.372Z,97313.55
2019-05-25T19:57:18.312Z,97316.15
2019-05-25T19:59:45.169Z,97315.31
2019-05-25T20:02:12.397Z,97319.84
2019-05-25T20:04:39.305Z,97324.38
2019-05-25T20:07:06.197Z,97331.18
2019-05-25T20:09:33.522Z,97334.42
2019-05-25T20:12:00.470Z,97325.58
2019-05-25T20:14:27.279Z,97340.58
2019-05-25T20:16:54.119Z,97341.39
2019-05-25T20:19:21.040Z,97340.44
2019-05-25T20:21:47.854Z,97313.29
2019-05-25T20:24:14.713Z,97344.42
2019-05-25T20:26:41.551Z,97347.57
2019-05-25T20:29:08.423Z,97346.13
2019-05-25T20:31:36.142Z,97354.27
2019-05-25T20:34:03.075Z,97348.05
2019-05-25T20:36:30.616Z,97349.05
2019-05-25T20:38:57.410Z,97348.08
2019-05-25T20:41:24.104Z,97346.14
2019-05-25T20:43:50.945Z,97349.84
2019-05-25T20:46:17.752Z,97343.50
2019-05-25T20:48:44.639Z,97349.13
2019-05-25T20:51:11.357Z,97348.48
2019-05-25T20:53:38.086Z,97360.32
2019-05-25T20:56:04.850Z,97360.55
2019-05-25T20:58:31.720Z,97366.95
2019-05-25T21:00:58.495Z,97365.44
2019-05-25T21:03:25.198Z,97370.75
2019-05-25T21:05:59.103Z,97369.20
2019-05-25T21:08:26.118Z,97369.11
2019-05-25T21:10:52.981Z,97371.84
2019-05-25T21:13:19.890Z,97374.41
2019-05-25T21:15:46.575Z,97372.55
2019-05-25T21:18:15.981Z,97375.36
2019-05-25T21:20:42.877Z,97369.48
2019-05-25T21:23:11.846Z,97372.86
2019-05-25T21:25:38.835Z,97371.56
2019-05-25T21:28:05.718Z,97379.04
2019-05-25T21:30:32.758Z,97381.28
2019-05-25T21:32:59.550Z,97379.98
2019-05-25T21:35:26.588Z,97385.53
2019-05-25T21:37:53.616Z,97384.47
2019-05-25T21:40:20.386Z,97385.34
2019-05-25T21:42:47.138Z,97387.03
2019-05-25T21:45:13.967Z,97383.48
2019-05-25T21:47:40.629Z,97389.94
2019-05-25T21:50:07.667Z,97392.11
2019-05-25T21:52:34.536Z,97392.74
2019-05-25T21:55:01.585Z,97393.62
2019-05-25T21:57:28.332Z,97392.63
2019-05-25T21:59:55.074Z,97395.19
2019-05-25T22:02:22.011Z,97393.07
2019-05-25T22:04:48.764Z,97396.19
2019-05-25T22:07:15.605Z,97396.81
2019-05-25T22:09:42.387Z,97397.78
2019-05-25T22:12:09.126Z,97396.53
2019-05-25T22:14:36.175Z,97396.60
2019-05-25T22:17:02.997Z,97396.98
2019-05-25T22:19:29.752Z,97397.91
2019-05-25T22:21:56.322Z,97400.89
2019-05-25T22:24:23.074Z,97403.38
2019-05-25T22:26:49.751Z,97400.95
2019-05-25T22:29:16.376Z,97403.50
2019-05-25T22:31:43.109Z,97410.34
2019-05-25T22:34:09.822Z,97419.76
2019-05-25T22:36:40.789Z,97415.44
2019-05-25T22:39:05.985Z,97417.98
2019-05-25T22:41:32.731Z,97420.72
2019-05-25T22:43:59.608Z,97417.73
2019-05-25T22:46:26.245Z,97418.85
2019-05-25T22:48:52.930Z,97419.72
2019-05-25T22:51:19.502Z,97424.19
2019-05-25T22:53:46.265Z,97425.25
2019-05-25T22:56:12.994Z,97428.54
2019-05-25T22:58:39.643Z,97426.61
2019-05-25T23:01:06.326Z,97425.00
2019-05-25T23:03:33.074Z,97423.08
2019-05-25T23:05:59.719Z,97418.47
2019-05-25T23:08:26.562Z,97425.30
2019-05-25T23:10:53.379Z,97416.85
2019-05-25T23:13:20.265Z,97422.02
2019-05-25T23:15:46.808Z,97416.60
2019-05-25T23:18:13.581Z,97417.66
2019-05-25T23:20:40.239Z,97419.09
2019-05-25T23:23:07.882Z,97423.19
2019-05-25T23:25:34.704Z,97423.75
2019-05-25T23:28:02.555Z,97425.11
2019-05-25T23:30:29.189Z,97425.36
2019-05-25T23:32:56.155Z,97418.59
2019-05-25T23:35:22.886Z,97423.50
2019-05-25T23:37:49.663Z,97423.25
2019-05-25T23:40:16.497Z,97421.62
2019-05-25T23:42:43.085Z,97417.06
2019-05-25T23:45:09.992Z,97416.25
2019-05-25T23:47:36.848Z,97414.63
2019-05-25T23:50:04.980Z,97423.09
2019-05-25T23:52:31.653Z,97418.98
2019-05-25T23:54:58.399Z,97414.63
2019-05-25T23:57:25.244Z,97414.63
2019-05-25T23:59:52.293Z,97417.67
